Arnold, California
Current Conditions -  °F | °C
As of 3:55 PM on Friday 24 Oct 2014 (Local Time) from KO22 Reporting Station
Clear Clear  
Wind Chill: 79°   Ceiling: Unl
Heat Index: 79°   Visibility: 10mi
Dew Point: 32°   Wind: 7mph
Humidity: 18%   Direction: 180°S
Pressure: 29.92"   Gusts: NA
Location:  38.23°N, 120.37°W
Report Text: KO22 242255Z AUTO 18006KT 10SM CLR 26/00 A2992 RMK AO1
Loading
Personal Weather Stations






























Interactive Weather Map New forecast layout! Learn more

10-Day Weather Forecast

Advertisements
Track Severe Weather on mobile